createdAt,value
2023-02-07T00:00:11.807Z,102702.69
2023-02-07T00:01:46.185Z,102699.13
2023-02-07T00:03:18.019Z,102706.97
2023-02-07T00:04:49.770Z,102699.06
2023-02-07T00:06:25.708Z,102710.34
2023-02-07T00:07:57.496Z,102698.13
2023-02-07T00:09:30.493Z,102705.09
2023-02-07T00:11:10.556Z,102702.38
2023-02-07T00:12:42.802Z,102711.16
2023-02-07T00:14:14.531Z,102711.09
2023-02-07T00:15:46.250Z,102709.25
2023-02-07T00:17:18.042Z,102709.25
2023-02-07T00:18:50.201Z,102703.97
2023-02-07T00:20:21.939Z,102713.56
2023-02-07T00:21:53.640Z,102708.25
2023-02-07T00:23:25.369Z,102712.59
2023-02-07T00:24:57.060Z,102716.00
2023-02-07T00:26:28.881Z,102710.78
2023-02-07T00:28:00.641Z,102708.81
2023-02-07T00:29:33.254Z,102708.81
2023-02-07T00:31:16.663Z,102716.59
2023-02-07T00:32:48.479Z,102717.41
2023-02-07T00:34:21.130Z,102712.94
2023-02-07T00:36:00.786Z,102721.59
2023-02-07T00:37:35.126Z,102718.03
2023-02-07T00:39:12.341Z,102724.91
2023-02-07T00:40:44.512Z,102717.06
2023-02-07T00:42:16.261Z,102719.56
2023-02-07T00:43:48.469Z,102721.25
2023-02-07T00:45:20.327Z,102732.47
2023-02-07T00:46:52.152Z,102724.53
2023-02-07T00:48:24.128Z,102734.88
2023-02-07T00:49:56.493Z,102736.56
2023-02-07T00:51:28.342Z,102732.97
2023-02-07T00:53:00.053Z,102737.25
2023-02-07T00:54:31.783Z,102735.47
2023-02-07T00:56:03.595Z,102734.47
2023-02-07T00:57:35.299Z,102734.47
2023-02-07T00:59:07.216Z,102723.91
2023-02-07T01:00:40.329Z,102711.59
2023-02-07T01:02:12.041Z,102719.44
2023-02-07T01:03:43.781Z,102715.88
2023-02-07T01:05:15.985Z,102716.72
2023-02-07T01:06:47.912Z,102716.72
2023-02-07T01:08:19.639Z,102713.22
2023-02-07T01:09:51.344Z,102714.06
2023-02-07T01:11:23.916Z,102713.19
2023-02-07T01:12:56.553Z,102712.22
2023-02-07T01:14:28.290Z,102719.19
2023-02-07T01:16:00.426Z,102721.78
2023-02-07T01:17:33.975Z,102724.31
2023-02-07T01:19:07.997Z,102724.31
2023-02-07T01:20:39.845Z,102724.31
2023-02-07T01:22:11.564Z,102724.31
2023-02-07T01:23:43.404Z,102721.72
2023-02-07T01:25:15.135Z,102724.31
2023-02-07T01:26:46.875Z,102722.56
2023-02-07T01:28:19.574Z,102719.94
2023-02-07T01:29:51.482Z,102717.31
2023-02-07T01:31:25.523Z,102716.44
2023-02-07T01:32:58.002Z,102715.59
2023-02-07T01:34:30.332Z,102713.84
2023-02-07T01:36:07.091Z,102713.75
2023-02-07T01:37:39.050Z,102714.69
2023-02-07T01:39:11.908Z,102713.72
2023-02-07T01:40:43.742Z,102718.09
2023-02-07T01:42:16.888Z,102721.47
2023-02-07T01:44:02.016Z,102721.44
2023-02-07T01:45:39.889Z,102711.75
2023-02-07T01:47:17.636Z,102716.97
2023-02-07T01:48:49.799Z,102717.75
2023-02-07T01:50:22.734Z,102724.78
2023-02-07T01:51:58.771Z,102726.41
2023-02-07T01:53:35.127Z,102726.41
2023-02-07T01:55:21.170Z,102719.31
2023-02-07T01:56:57.286Z,102719.31
2023-02-07T01:58:29.459Z,102721.03
2023-02-07T02:00:01.954Z,102714.84
2023-02-07T02:01:34.540Z,102714.81
2023-02-07T02:03:06.641Z,102706.00
2023-02-07T02:04:39.540Z,102704.22
2023-02-07T02:06:13.006Z,102705.03
2023-02-07T02:07:45.796Z,102686.72
2023-02-07T02:09:17.521Z,102696.28
2023-02-07T02:11:07.898Z,102689.97
2023-02-07T02:13:14.871Z,102681.06
2023-02-07T02:15:00.845Z,102686.19
2023-02-07T02:16:45.474Z,102686.06
2023-02-07T02:18:40.477Z,102683.22
2023-02-07T02:20:22.885Z,102678.75
2023-02-07T02:22:24.591Z,102684.63
2023-02-07T02:24:05.415Z,102683.69
2023-02-07T02:26:14.515Z,102673.16
2023-02-07T02:28:14.131Z,102682.56
2023-02-07T02:34:44.191Z,102681.22
2023-02-07T02:36:44.743Z,102687.16
2023-02-07T02:38:27.159Z,102689.69
2023-02-07T02:40:09.916Z,102690.59
2023-02-07T02:42:12.663Z,102693.97
2023-02-07T02:43:54.059Z,102700.13
2023-02-07T02:45:32.724Z,102693.09
2023-02-07T02:47:04.747Z,102693.13
2023-02-07T02:48:38.038Z,102694.00
2023-02-07T02:50:12.475Z,102700.19
2023-02-07T02:51:44.220Z,102701.94
2023-02-07T02:53:16.687Z,102695.88
2023-02-07T02:54:48.574Z,102697.59
2023-02-07T02:56:26.809Z,102689.75
2023-02-07T02:58:31.795Z,102694.09
2023-02-07T03:00:23.668Z,102682.81
2023-02-07T03:02:19.114Z,102692.41
2023-02-07T03:04:09.386Z,102684.53
2023-02-07T03:05:58.598Z,102687.19
2023-02-07T03:07:41.519Z,102687.19
2023-02-07T03:09:33.523Z,102691.50
2023-02-07T03:11:17.538Z,102681.84
2023-02-07T03:13:00.013Z,102687.88
2023-02-07T03:14:42.796Z,102688.75
2023-02-07T03:16:23.937Z,102690.41
2023-02-07T03:18:15.648Z,102688.53
2023-02-07T03:19:53.872Z,102687.59
2023-02-07T03:21:35.052Z,102684.13
2023-02-07T03:23:09.126Z,102687.53
2023-02-07T03:24:51.706Z,102683.03
2023-02-07T03:26:25.831Z,102687.34
2023-02-07T03:27:59.287Z,102690.78
2023-02-07T03:29:32.335Z,102690.78
2023-02-07T03:31:07.172Z,102690.72
2023-02-07T03:32:44.153Z,102691.59
2023-02-07T03:34:21.048Z,102692.44
2023-02-07T03:35:55.540Z,102705.66
2023-02-07T03:37:49.958Z,102696.81
2023-02-07T03:39:21.824Z,102696.06
2023-02-07T03:41:02.983Z,102698.69
2023-02-07T03:42:40.085Z,102698.69
2023-02-07T03:44:14.909Z,102695.22
2023-02-07T03:45:46.661Z,102696.06
2023-02-07T03:47:19.608Z,102698.69
2023-02-07T03:48:51.412Z,102694.28
2023-02-07T03:50:23.134Z,102692.56
2023-02-07T03:51:54.842Z,102685.53
2023-02-07T03:53:27.248Z,102681.13
2023-02-07T03:54:59.021Z,102683.72
2023-02-07T03:56:30.741Z,102682.75
2023-02-07T03:58:02.616Z,102681.88
2023-02-07T03:59:34.443Z,102682.63
2023-02-07T04:01:06.299Z,102682.63
2023-02-07T04:02:38.027Z,102677.28
2023-02-07T04:04:11.458Z,102685.97
2023-02-07T04:05:45.922Z,102680.72
2023-02-07T04:07:17.739Z,102683.34
2023-02-07T04:08:49.445Z,102676.28
2023-02-07T04:10:21.294Z,102673.66
2023-02-07T04:11:53.096Z,102680.59
2023-02-07T04:13:25.106Z,102676.22
2023-02-07T04:14:56.885Z,102674.41
2023-02-07T04:16:28.677Z,102667.38
2023-02-07T04:18:00.529Z,102672.59
2023-02-07T04:19:32.265Z,102666.47
2023-02-07T04:21:06.488Z,102677.81
2023-02-07T04:22:38.200Z,102679.50
2023-02-07T04:24:09.908Z,102671.69
2023-02-07T04:25:41.583Z,102679.50
2023-02-07T04:27:13.410Z,102675.13
2023-02-07T04:28:45.124Z,102668.13
2023-02-07T04:30:17.063Z,102667.19
2023-02-07T04:31:48.938Z,102671.50
2023-02-07T04:33:23.786Z,102668.91
2023-02-07T04:34:55.506Z,102686.31
2023-02-07T04:36:29.852Z,102690.66
2023-02-07T04:38:01.612Z,102688.00
2023-02-07T04:39:33.535Z,102689.69
2023-02-07T04:41:05.928Z,102687.91
2023-02-07T04:42:37.645Z,102687.91
2023-02-07T04:44:09.461Z,102687.91
2023-02-07T04:45:41.286Z,102680.03
2023-02-07T04:47:13.331Z,102679.94
2023-02-07T04:48:45.127Z,102682.50
2023-02-07T04:50:17.412Z,102696.47
2023-02-07T04:51:49.089Z,102696.44
2023-02-07T04:53:20.973Z,102696.34
2023-02-07T04:54:52.676Z,102699.81
2023-02-07T04:56:25.108Z,102691.94
2023-02-07T04:57:56.869Z,102695.34
2023-02-07T04:59:28.710Z,102701.38
2023-02-07T05:01:00.527Z,102700.50
2023-02-07T05:02:32.290Z,102695.19
2023-02-07T05:04:04.180Z,102698.66
2023-02-07T05:05:39.602Z,102700.41
2023-02-07T05:07:11.439Z,102698.59
2023-02-07T05:08:43.194Z,102703.72
2023-02-07T05:10:14.921Z,102703.72
2023-02-07T05:11:46.621Z,102704.56
2023-02-07T05:13:18.351Z,102708.81
2023-02-07T05:14:50.055Z,102703.59
2023-02-07T05:16:21.887Z,102708.81
2023-02-07T05:17:57.209Z,102701.81
2023-02-07T05:19:29.078Z,102707.91
2023-02-07T05:21:00.761Z,102706.94
2023-02-07T09:04:00.142Z,102800.69
2023-02-07T09:05:33.762Z,102800.50
2023-02-07T09:07:05.499Z,102798.84
2023-02-07T09:08:37.370Z,102797.66
2023-02-07T09:10:10.675Z,102812.00
2023-02-07T09:11:42.499Z,102808.72
2023-02-07T09:13:14.295Z,102795.53
2023-02-07T09:14:46.011Z,102795.28
2023-02-07T09:16:17.775Z,102794.00
2023-02-07T09:17:49.686Z,102787.25
2023-02-07T09:19:22.106Z,102785.66
2023-02-07T09:20:54.064Z,102773.44
2023-02-07T09:22:26.342Z,102776.00
2023-02-07T09:23:58.028Z,102778.50
2023-02-07T09:25:29.869Z,102773.88
2023-02-07T09:27:02.419Z,102776.16
2023-02-07T09:28:34.577Z,102777.63
2023-02-07T09:30:06.905Z,102778.06
2023-02-07T09:31:38.740Z,102770.63
2023-02-07T09:33:11.994Z,102770.16
2023-02-07T09:34:43.753Z,102768.78
2023-02-07T09:36:21.797Z,102771.75
2023-02-07T09:37:54.437Z,102758.13
2023-02-07T09:39:27.066Z,102754.00
2023-02-07T09:40:59.486Z,102747.28
2023-02-07T09:42:41.085Z,102745.75
2023-02-07T09:44:32.910Z,102743.38
2023-02-07T09:46:16.512Z,102743.63
2023-02-07T09:47:52.193Z,102741.22
2023-02-07T09:49:36.041Z,102737.09
2023-02-07T09:51:13.564Z,102739.88
2023-02-07T09:52:49.750Z,102737.41
2023-02-07T09:54:25.329Z,102735.84
2023-02-07T09:55:59.474Z,102729.84
2023-02-07T09:57:44.328Z,102728.19
2023-02-07T09:59:25.070Z,102738.88
2023-02-07T10:01:03.907Z,102731.13
2023-02-07T10:02:41.845Z,102737.44
2023-02-07T10:04:30.596Z,102735.78
2023-02-07T10:06:17.860Z,102736.81
2023-02-07T10:07:50.859Z,102730.84
2023-02-07T10:09:27.734Z,102734.47
2023-02-07T10:11:34.564Z,102730.19
2023-02-07T10:13:11.730Z,102730.41
2023-02-07T10:15:01.703Z,102733.97
2023-02-07T10:17:25.762Z,102722.72
2023-02-07T10:19:11.493Z,102716.75
2023-02-07T10:21:10.756Z,102720.38
2023-02-07T10:22:54.063Z,102723.97
2023-02-07T10:24:59.381Z,102728.41
2023-02-07T10:26:52.721Z,102728.56
2023-02-07T10:28:47.650Z,102733.91
2023-02-07T10:30:31.204Z,102729.63
2023-02-07T10:32:12.676Z,102727.13
2023-02-07T10:33:48.376Z,102729.84
2023-02-07T10:35:22.852Z,102725.66
2023-02-07T10:36:57.981Z,102734.50
2023-02-07T10:38:41.782Z,102731.06
2023-02-07T10:40:17.148Z,102729.38
2023-02-07T10:41:48.901Z,102728.63
2023-02-07T10:43:34.557Z,102728.72
2023-02-07T10:45:06.615Z,102733.25
2023-02-07T10:46:41.520Z,102732.50
2023-02-07T10:48:17.283Z,102731.69
2023-02-07T10:49:51.622Z,102733.56
2023-02-07T10:51:32.996Z,102720.50
2023-02-07T10:53:04.790Z,102716.19
2023-02-07T10:54:53.425Z,102721.56
2023-02-07T10:56:28.162Z,102728.75
2023-02-07T10:58:06.361Z,102727.06
2023-02-07T10:59:48.923Z,102725.41
2023-02-07T11:01:29.307Z,102722.88
2023-02-07T11:03:12.974Z,102731.78
2023-02-07T11:04:45.070Z,102724.84
2023-02-07T11:06:33.676Z,102725.81
2023-02-07T11:08:18.678Z,102722.41
2023-02-07T11:09:50.593Z,102719.88
2023-02-07T11:11:33.087Z,102712.94
2023-02-07T11:13:12.592Z,102711.28
2023-02-07T11:15:18.658Z,102702.59
2023-02-07T11:16:50.464Z,102702.81
2023-02-07T11:18:37.825Z,102697.66
2023-02-07T11:20:20.727Z,102691.69
2023-02-07T11:22:06.568Z,102698.09
2023-02-07T11:23:44.693Z,102690.34
2023-02-07T11:25:16.592Z,102693.19
2023-02-07T11:27:13.611Z,102682.81
2023-02-07T11:28:46.216Z,102687.41
2023-02-07T11:30:22.162Z,102681.38
2023-02-07T11:31:57.060Z,102677.13
2023-02-07T11:33:31.577Z,102666.69
2023-02-07T11:35:09.810Z,102669.41
2023-02-07T11:36:41.620Z,102670.38
2023-02-07T11:38:14.220Z,102663.38
2023-02-07T11:39:47.611Z,102672.25
2023-02-07T11:41:27.633Z,102678.44
2023-02-07T11:43:15.794Z,102670.53
2023-02-07T11:44:49.620Z,102674.06
2023-02-07T11:46:24.159Z,102681.13
2023-02-07T11:47:58.060Z,102678.44
2023-02-07T11:49:41.956Z,102681.06
2023-02-07T11:51:18.106Z,102686.34
2023-02-07T11:52:56.032Z,102674.81
2023-02-07T11:54:29.933Z,102680.97
2023-02-07T11:56:01.731Z,102680.91
2023-02-07T11:57:34.557Z,102678.22
2023-02-07T11:59:15.393Z,102680.78
2023-02-07T12:00:47.843Z,102675.41
2023-02-07T12:02:22.340Z,102675.38
2023-02-07T12:04:01.272Z,102667.34
2023-02-07T12:05:42.519Z,102678.75
2023-02-07T12:07:25.642Z,102674.31
2023-02-07T12:08:59.356Z,102668.88
2023-02-07T12:10:38.422Z,102662.59
2023-02-07T12:12:18.182Z,102672.25
2023-02-07T12:14:02.139Z,102656.22
2023-02-07T12:15:52.821Z,102671.19
2023-02-07T12:17:36.042Z,102665.75
2023-02-07T12:19:19.140Z,102650.56
2023-02-07T12:21:18.349Z,102654.91
2023-02-07T12:23:41.129Z,102653.06
2023-02-07T12:25:25.909Z,102651.13
2023-02-07T12:27:14.685Z,102644.91
2023-02-07T12:29:10.982Z,102643.03
2023-02-07T12:30:48.872Z,102641.13
2023-02-07T12:32:37.920Z,102632.22
2023-02-07T12:34:17.491Z,102628.56
2023-02-07T12:36:04.069Z,102625.81
2023-02-07T12:37:59.304Z,102631.06
2023-02-07T12:39:41.968Z,102637.19
2023-02-07T12:41:24.537Z,102630.03
2023-02-07T12:43:27.874Z,102636.28
2023-02-07T12:45:01.790Z,102636.19
2023-02-07T12:47:05.047Z,102637.06
2023-02-07T12:48:55.208Z,102642.34
2023-02-07T12:50:55.126Z,102645.03
2023-02-07T12:52:26.806Z,102641.44
2023-02-07T12:54:25.424Z,102646.84
2023-02-07T12:56:10.229Z,102639.72
2023-02-07T12:58:12.749Z,102638.91
2023-02-07T13:00:15.483Z,102645.09
2023-02-07T13:02:07.511Z,102638.94
2023-02-07T13:03:56.077Z,102630.94
2023-02-07T13:05:49.826Z,102630.16
2023-02-07T13:07:37.354Z,102626.66
2023-02-07T13:09:22.115Z,102632.00
2023-02-07T13:11:01.975Z,102621.44
2023-02-07T13:12:45.456Z,102618.88
2023-02-07T13:14:54.248Z,102613.66
2023-02-07T13:16:34.978Z,102609.31
2023-02-07T13:18:12.872Z,102611.25
2023-02-07T13:20:05.237Z,102601.66
2023-02-07T13:21:47.553Z,102615.97
2023-02-07T13:23:22.676Z,102605.44
2023-02-07T13:24:55.983Z,102606.44
2023-02-07T13:26:28.897Z,102605.66
2023-02-07T13:28:06.964Z,102608.44
2023-02-07T13:29:40.906Z,102606.75
2023-02-07T13:31:21.420Z,102607.72
2023-02-07T13:32:53.998Z,102607.75
2023-02-07T13:34:25.672Z,102601.59
2023-02-07T13:36:04.820Z,102602.56
2023-02-07T13:37:58.974Z,102602.63
2023-02-07T13:39:43.259Z,102598.25
2023-02-07T13:41:34.676Z,102602.75
2023-02-07T13:43:27.666Z,102593.91
2023-02-07T13:45:03.746Z,102601.03
2023-02-07T13:47:04.859Z,102601.97
2023-02-07T13:48:45.428Z,102601.16
2023-02-07T13:50:46.095Z,102598.50
2023-02-07T13:52:31.550Z,102602.09
2023-02-07T13:54:19.071Z,102600.31
2023-02-07T13:55:51.568Z,102592.38
2023-02-07T13:57:54.234Z,102585.38
2023-02-07T13:59:41.525Z,102592.47
2023-02-07T14:01:18.783Z,102595.13
2023-02-07T14:02:54.023Z,102598.66
2023-02-07T14:04:45.158Z,102600.44
2023-02-07T14:06:22.668Z,102595.13
2023-02-07T14:08:01.100Z,102594.28
2023-02-07T14:09:44.948Z,102587.19
2023-02-07T14:11:29.980Z,102591.63
2023-02-07T14:13:02.741Z,102596.03
2023-02-07T14:14:37.553Z,102591.63
2023-02-07T14:16:12.055Z,102588.97
2023-02-07T14:17:43.717Z,102587.19
2023-02-07T14:19:17.882Z,102587.19
2023-02-07T14:20:50.376Z,102579.22
2023-02-07T14:22:25.923Z,102577.47
2023-02-07T14:23:57.638Z,102575.69
2023-02-07T14:25:40.270Z,102573.03
2023-02-07T14:27:38.171Z,102575.72
2023-02-07T14:29:24.964Z,102575.72
2023-02-07T14:31:00.374Z,102566.00
2023-02-07T14:32:40.771Z,102571.31
2023-02-07T14:34:14.865Z,102569.53
2023-02-07T14:36:11.038Z,102572.22
2023-02-07T14:37:49.405Z,102570.44
2023-02-07T14:39:32.220Z,102562.50
2023-02-07T14:41:11.160Z,102558.94
2023-02-07T14:42:53.466Z,102558.97
2023-02-07T14:44:28.146Z,102558.06
2023-02-07T14:46:11.395Z,102560.75
2023-02-07T14:47:43.441Z,102554.56
2023-02-07T14:49:20.955Z,102559.88
2023-02-07T14:50:53.364Z,102559.00
2023-02-07T14:52:35.944Z,102564.31
2023-02-07T14:54:18.982Z,102559.03
2023-02-07T14:55:59.732Z,102553.75
2023-02-07T14:57:43.909Z,102556.38
2023-02-07T14:59:23.745Z,102550.22
2023-02-07T15:00:59.083Z,102552.00
2023-02-07T15:02:39.884Z,102544.09
2023-02-07T15:04:12.466Z,102544.97
2023-02-07T15:05:57.732Z,102543.22
2023-02-07T15:07:29.467Z,102552.06
2023-02-07T15:09:02.153Z,102558.25
2023-02-07T15:10:57.417Z,102560.03
2023-02-07T15:12:29.165Z,102559.16
2023-02-07T15:14:03.362Z,102565.38
2023-02-07T15:15:47.936Z,102572.44
2023-02-07T15:17:22.450Z,102576.84
2023-02-07T15:18:59.592Z,102567.13
2023-02-07T15:20:34.456Z,102564.47
2023-02-07T15:22:20.364Z,102574.19
2023-02-07T15:24:15.795Z,102573.28
2023-02-07T15:25:48.418Z,102574.19
2023-02-07T15:27:27.219Z,102577.69
2023-02-07T15:29:01.238Z,102578.56
2023-02-07T15:30:33.518Z,102581.19
2023-02-07T15:32:22.353Z,102585.56
2023-02-07T15:33:57.465Z,102585.56
2023-02-07T15:35:39.659Z,102595.22
2023-02-07T15:37:16.674Z,102606.69
2023-02-07T15:38:48.452Z,102604.88
2023-02-07T15:40:26.414Z,102611.91
2023-02-07T15:41:58.739Z,102610.13
2023-02-07T15:43:33.763Z,102606.56
2023-02-07T15:45:10.633Z,102608.28
2023-02-07T15:46:49.805Z,102612.66
2023-02-07T15:48:21.749Z,102610.00
2023-02-07T15:50:06.611Z,102607.28
2023-02-07T15:51:41.727Z,102611.66
2023-02-07T15:53:21.614Z,102616.91
2023-02-07T15:54:55.585Z,102621.25
2023-02-07T15:56:30.214Z,102622.97
2023-02-07T15:58:04.317Z,102627.34
2023-02-07T15:59:37.711Z,102624.66
2023-02-07T16:01:35.728Z,102628.09
2023-02-07T16:03:14.907Z,102621.91
2023-02-07T16:04:46.757Z,102624.50
2023-02-07T16:06:21.319Z,102618.31
2023-02-07T16:07:54.304Z,102620.00
2023-02-07T16:09:38.358Z,102626.97
2023-02-07T16:11:15.872Z,102633.94
2023-02-07T16:12:53.235Z,102632.13
2023-02-07T16:14:31.783Z,102641.75
2023-02-07T16:16:11.431Z,102646.09
2023-02-07T16:17:43.321Z,102634.56
2023-02-07T16:19:14.978Z,102644.19
2023-02-07T16:20:46.868Z,102645.88
2023-02-07T16:22:21.653Z,102646.63
2023-02-07T16:24:07.358Z,102655.31
2023-02-07T16:25:42.704Z,102658.78
2023-02-07T16:27:18.864Z,102657.81
2023-02-07T16:28:50.819Z,102661.25
2023-02-07T16:30:36.128Z,102662.00
2023-02-07T16:32:11.266Z,102667.22
2023-02-07T16:33:43.362Z,102663.63
2023-02-07T16:35:22.392Z,102662.66
2023-02-07T16:36:55.886Z,102669.63
2023-02-07T16:38:27.780Z,102662.50
2023-02-07T16:39:59.593Z,102667.69
2023-02-07T16:41:34.304Z,102667.63
2023-02-07T16:43:08.107Z,102671.91
2023-02-07T16:44:39.958Z,102671.88
2023-02-07T16:46:11.799Z,102672.59
2023-02-07T16:47:44.064Z,102677.81
2023-02-07T16:49:21.590Z,102675.13
2023-02-07T16:50:53.502Z,102676.78
2023-02-07T16:52:25.367Z,102674.06
2023-02-07T16:53:57.227Z,102678.41
2023-02-07T16:55:29.282Z,102675.69
2023-02-07T16:57:04.906Z,102683.53
2023-02-07T16:58:36.675Z,102677.31
2023-02-07T17:00:10.459Z,102675.50
2023-02-07T17:01:42.207Z,102679.81
2023-02-07T17:03:15.611Z,102671.81
2023-02-07T17:04:47.462Z,102679.66
2023-02-07T17:06:21.588Z,102675.19
2023-02-07T17:07:53.330Z,102679.53
2023-02-07T17:09:26.221Z,102676.84
2023-02-07T17:11:01.846Z,102682.94
2023-02-07T17:12:33.629Z,102678.47
2023-02-07T17:14:05.560Z,102678.41
2023-02-07T17:15:37.334Z,102672.19
2023-02-07T17:17:11.708Z,102682.69
2023-02-07T17:18:43.804Z,102685.25
2023-02-07T17:20:28.041Z,102687.81
2023-02-07T17:21:59.919Z,102679.91
2023-02-07T17:23:31.786Z,102685.09
2023-02-07T17:25:04.289Z,102686.81
2023-02-07T17:26:37.887Z,102685.03
2023-02-07T17:28:18.497Z,102686.66
2023-02-07T17:29:50.410Z,102683.09
2023-02-07T17:31:23.149Z,102684.84
2023-02-07T17:32:56.218Z,102687.47
2023-02-07T17:34:28.722Z,102693.56
2023-02-07T17:36:01.365Z,102678.63
2023-02-07T17:37:33.243Z,102678.59
2023-02-07T17:39:07.030Z,102679.44
2023-02-07T17:40:40.913Z,102676.75
2023-02-07T17:42:12.894Z,102682.88
2023-02-07T17:43:45.013Z,102679.31
2023-02-07T17:45:17.329Z,102692.47
2023-02-07T17:46:49.639Z,102682.75
2023-02-07T17:48:23.284Z,102687.13
2023-02-07T17:49:55.135Z,102680.06
2023-02-07T17:51:28.622Z,102688.81
2023-02-07T17:53:04.081Z,102693.13
2023-02-07T17:54:35.918Z,102696.59
2023-02-07T17:56:08.176Z,102696.56
2023-02-07T17:57:41.618Z,102703.53
2023-02-07T17:59:22.988Z,102708.72
2023-02-07T18:00:54.818Z,102704.25
2023-02-07T18:02:26.630Z,102715.75
2023-02-07T18:03:58.695Z,102710.41
2023-02-07T18:05:30.725Z,102707.75
2023-02-07T18:07:02.515Z,102702.44
2023-02-07T18:08:34.280Z,102705.94
2023-02-07T18:10:07.318Z,102705.09
2023-02-07T18:11:39.042Z,102701.63
2023-02-07T18:13:10.849Z,102708.66
2023-02-07T18:14:42.602Z,102713.91
2023-02-07T18:16:22.132Z,102710.41
2023-02-07T18:17:54.807Z,102703.44
2023-02-07T18:19:26.557Z,102706.09
2023-02-07T18:20:58.414Z,102704.38
2023-02-07T18:22:30.287Z,102707.03
2023-02-07T18:24:02.575Z,102707.09
2023-02-07T18:25:34.681Z,102711.41
2023-02-07T18:27:06.528Z,102712.28
2023-02-07T18:28:38.526Z,102720.25
2023-02-07T18:30:11.434Z,102717.59
2023-02-07T18:31:43.970Z,102715.84
2023-02-07T18:33:17.210Z,102717.59
2023-02-07T18:34:49.105Z,102717.59
2023-02-07T18:36:23.321Z,102720.19
2023-02-07T18:37:55.187Z,102728.13
2023-02-07T18:39:27.081Z,102730.75
2023-02-07T18:40:58.923Z,102727.22
2023-02-07T18:42:31.136Z,102727.22
2023-02-07T18:44:03.075Z,102724.56
2023-02-07T18:45:37.462Z,102734.22
2023-02-07T18:47:09.334Z,102735.06
2023-02-07T18:48:41.332Z,102728.88
2023-02-07T18:50:13.458Z,102720.94
2023-02-07T18:51:45.312Z,102733.19
2023-02-07T18:53:17.159Z,102731.34
2023-02-07T18:54:48.937Z,102732.16
2023-02-07T18:56:23.440Z,102735.59
2023-02-07T18:57:57.334Z,102731.13
2023-02-07T18:59:31.037Z,102725.78
2023-02-07T19:01:05.403Z,102720.47
2023-02-07T19:02:37.516Z,102718.63
2023-02-07T19:04:09.355Z,102721.25
2023-02-07T19:05:41.711Z,102722.94
2023-02-07T19:07:13.573Z,102728.16
2023-02-07T19:08:45.404Z,102718.47
2023-02-07T19:10:17.409Z,102719.28
2023-02-07T19:11:50.773Z,102713.94
2023-02-07T19:13:22.825Z,102713.00
2023-02-07T19:14:54.570Z,102706.78
2023-02-07T19:16:26.429Z,102706.72
2023-02-07T19:17:58.177Z,102701.44
2023-02-07T19:19:30.999Z,102710.16
2023-02-07T19:21:11.723Z,102710.94
2023-02-07T19:22:45.088Z,102711.75
2023-02-07T19:24:20.645Z,102708.16
2023-02-07T19:25:52.499Z,102709.03
2023-02-07T19:27:24.326Z,102714.19
2023-02-07T19:28:58.051Z,102703.59
2023-02-07T19:30:30.794Z,102705.28
2023-02-07T19:32:06.178Z,102713.06
2023-02-07T19:33:37.958Z,102713.88
2023-02-07T19:35:09.739Z,102715.53
2023-02-07T19:36:42.191Z,102715.47
2023-02-07T19:38:14.025Z,102718.94
2023-02-07T19:39:46.348Z,102716.28
2023-02-07T19:41:19.491Z,102708.34
2023-02-07T19:42:51.324Z,102710.88
2023-02-07T19:44:23.130Z,102716.16
2023-02-07T19:45:55.044Z,102704.72
2023-02-07T19:47:26.995Z,102704.69
2023-02-07T19:48:58.836Z,102703.81
2023-02-07T19:50:31.008Z,102702.00
2023-02-07T19:52:02.804Z,102702.88
2023-02-07T19:53:35.645Z,102706.38
2023-02-07T19:55:07.715Z,102697.63
2023-02-07T19:56:42.471Z,102704.63
2023-02-07T19:58:14.251Z,102700.31
2023-02-07T19:59:48.386Z,102702.00
2023-02-07T20:01:22.322Z,102700.31
2023-02-07T20:02:54.114Z,102700.31
2023-02-07T20:04:25.861Z,102700.31
2023-02-07T20:06:02.853Z,102705.56
2023-02-07T20:07:34.797Z,102694.13
2023-02-07T20:09:07.773Z,102703.75
2023-02-07T20:10:44.036Z,102702.00
2023-02-07T20:12:15.998Z,102694.13
2023-02-07T20:13:51.842Z,102692.34
2023-02-07T20:15:23.590Z,102693.22
2023-02-07T20:16:55.343Z,102691.41
2023-02-07T20:18:27.101Z,102687.00
2023-02-07T20:19:58.899Z,102681.72
2023-02-07T20:21:32.855Z,102690.44
2023-02-07T20:23:04.557Z,102689.56
2023-02-07T20:24:36.328Z,102693.88
2023-02-07T20:26:11.127Z,102689.47
2023-02-07T20:27:42.921Z,102693.00
2023-02-07T20:29:18.357Z,102685.91
2023-02-07T20:30:50.107Z,102693.75
2023-02-07T20:32:21.940Z,102693.69
2023-02-07T20:33:54.232Z,102697.16
2023-02-07T20:35:26.062Z,102691.81
2023-02-07T20:36:57.790Z,102692.63
2023-02-07T20:38:29.542Z,102701.31
2023-02-07T20:40:01.289Z,102695.09
2023-02-07T20:41:39.561Z,102694.13
2023-02-07T20:43:11.347Z,102698.41
2023-02-07T20:44:43.099Z,102692.19
2023-02-07T20:46:17.288Z,102700.88
2023-02-07T20:47:49.573Z,102699.97
2023-02-07T20:49:27.308Z,102698.94
2023-02-07T20:50:59.930Z,102707.66
2023-02-07T20:52:31.683Z,102706.72
2023-02-07T20:54:08.559Z,102696.19
2023-02-07T20:55:40.472Z,102701.44
2023-02-07T20:57:12.360Z,102697.88
2023-02-07T20:58:48.306Z,102701.34
2023-02-07T21:00:20.244Z,102704.78
2023-02-07T21:01:52.632Z,102701.28
2023-02-07T21:03:24.365Z,102703.88
2023-02-07T21:04:56.187Z,102709.13
2023-02-07T21:06:28.764Z,102702.94
2023-02-07T21:08:01.436Z,102697.59
2023-02-07T21:09:33.365Z,102700.22
2023-02-07T21:11:06.978Z,102706.34
2023-02-07T21:12:38.721Z,102701.03
2023-02-07T21:14:28.497Z,102707.88
2023-02-07T21:16:03.606Z,102700.94
2023-02-07T21:17:36.995Z,102697.41
2023-02-07T21:19:08.817Z,102694.78
2023-02-07T21:20:40.826Z,102696.53
2023-02-07T21:22:12.989Z,102697.31
2023-02-07T21:23:45.354Z,102694.63
2023-02-07T21:25:17.190Z,102688.50
2023-02-07T21:26:49.844Z,102690.28
2023-02-07T21:28:21.581Z,102684.09
2023-02-07T21:29:53.858Z,102679.72
2023-02-07T21:31:25.669Z,102684.03
2023-02-07T21:32:57.716Z,102686.59
2023-02-07T21:34:29.439Z,102691.84
2023-02-07T21:36:16.163Z,102693.47
2023-02-07T21:37:47.867Z,102697.81
2023-02-07T21:39:19.820Z,102696.94
2023-02-07T21:40:51.669Z,102696.84
2023-02-07T21:42:23.545Z,102698.56
2023-02-07T21:43:56.181Z,102702.88
2023-02-07T21:45:27.964Z,102708.09
2023-02-07T21:46:59.782Z,102705.38
2023-02-07T21:48:35.656Z,102706.25
2023-02-07T21:50:07.864Z,102709.69
2023-02-07T21:51:39.898Z,102699.94
2023-02-07T21:53:11.841Z,102695.56
2023-02-07T21:54:43.605Z,102706.00
2023-02-07T21:56:17.567Z,102697.25
2023-02-07T21:57:49.294Z,102702.47
2023-02-07T21:59:22.585Z,102704.19
2023-02-07T22:00:54.417Z,102704.13
2023-02-07T22:02:26.241Z,102708.50
2023-02-07T22:04:00.229Z,102707.63
2023-02-07T22:05:33.387Z,102708.47
2023-02-07T22:07:05.349Z,102708.47
2023-02-07T22:08:38.476Z,102713.72
2023-02-07T22:10:10.277Z,102709.28